TimeEDT,TemperatureF,Dew PointF,Humidity,Sea Level PressureIn,VisibilityMPH,Wind Direction,Wind SpeedMPH,Gust SpeedMPH,PrecipitationIn,Events,Conditions,WindDirDegrees,DateUTC
12:52 AM,37.0,18.0,46,30.03,10.0,North,3.5,-,N/A,,Clear,350,2013-03-23 04:52:00
1:52 AM,36.0,17.1,46,30.03,10.0,NNW,4.6,-,N/A,,Clear,340,2013-03-23 05:52:00
2:52 AM,36.0,17.1,46,30.02,10.0,Calm,Calm,-,N/A,,Clear,0,2013-03-23 06:52:00
3:52 AM,34.0,17.1,50,30.01,10.0,North,3.5,-,N/A,,Clear,360,2013-03-23 07:52:00
4:52 AM,35.1,18.0,50,30.02,10.0,WNW,4.6,-,N/A,,Clear,290,2013-03-23 08:52:00
5:52 AM,34.0,18.0,52,30.01,10.0,WNW,5.8,-,N/A,,Clear,290,2013-03-23 09:52:00
6:52 AM,34.0,18.0,52,30.03,10.0,WNW,5.8,-,N/A,,Clear,290,2013-03-23 10:52:00
7:52 AM,36.0,19.0,50,30.04,10.0,WNW,6.9,-,N/A,,Clear,300,2013-03-23 11:52:00
8:52 AM,39.0,19.0,45,30.04,10.0,West,8.1,-,N/A,,Clear,280,2013-03-23 12:52:00
9:52 AM,43.0,19.0,38,30.05,10.0,WNW,4.6,-,N/A,,Partly Cloudy,300,2013-03-23 13:52:00
10:52 AM,45.0,19.9,37,30.05,10.0,NW,10.4,-,N/A,,Mostly Cloudy,320,2013-03-23 14:52:00
11:52 AM,48.0,21.0,34,30.02,10.0,NNW,16.1,19.6,N/A,,Mostly Cloudy,330,2013-03-23 15:52:00
12:52 PM,50.0,21.0,32,30.00,10.0,NNW,15.0,21.9,N/A,,Mostly Cloudy,340,2013-03-23 16:52:00
1:52 PM,51.1,21.0,31,29.97,10.0,NNW,8.1,16.1,N/A,,Scattered Clouds,330,2013-03-23 17:52:00
2:52 PM,53.1,19.9,27,29.95,10.0,NW,10.4,24.2,N/A,,Scattered Clouds,320,2013-03-23 18:52:00
3:52 PM,54.0,19.9,26,29.94,10.0,WNW,8.1,18.4,N/A,,Scattered Clouds,290,2013-03-23 19:52:00
4:52 PM,55.0,21.0,27,29.93,10.0,NNW,10.4,25.3,N/A,,Scattered Clouds,330,2013-03-23 20:52:00
5:52 PM,54.0,19.0,25,29.93,10.0,NW,8.1,16.1,N/A,,Partly Cloudy,310,2013-03-23 21:52:00
6:52 PM,52.0,19.9,28,29.93,10.0,North,9.2,-,N/A,,Partly Cloudy,350,2013-03-23 22:52:00
7:52 PM,48.9,21.0,33,29.94,10.0,North,8.1,-,N/A,,Partly Cloudy,350,2013-03-23 23:52:00
8:52 PM,48.0,19.9,33,29.97,10.0,North,9.2,-,N/A,,Scattered Clouds,350,2013-03-24 00:52:00
9:52 PM,45.0,21.9,40,29.99,10.0,North,9.2,-,N/A,,Scattered Clouds,10,2013-03-24 01:52:00
10:52 PM,45.0,21.9,40,30.00,10.0,NNE,15.0,-,N/A,,Mostly Cloudy,20,2013-03-24 02:52:00
11:52 PM,43.0,21.9,43,30.01,10.0,NE,13.8,-,N/A,,Mostly Cloudy,40,2013-03-24 03:52:00